createdAt,value
2022-10-17T00:01:39.538Z,20.93
2022-10-17T00:04:06.958Z,20.90
2022-10-17T00:06:34.080Z,20.94
2022-10-17T00:09:01.236Z,20.72
2022-10-17T00:11:28.655Z,20.67
2022-10-17T00:13:56.119Z,20.82
2022-10-17T00:16:27.274Z,20.77
2022-10-17T00:18:54.713Z,20.94
2022-10-17T00:21:22.398Z,20.85
2022-10-17T00:23:49.591Z,20.86
2022-10-17T00:26:17.078Z,20.76
2022-10-17T00:28:47.896Z,20.77
2022-10-17T00:31:15.302Z,20.67
2022-10-17T00:33:44.110Z,20.38
2022-10-17T00:36:13.644Z,20.68
2022-10-17T00:38:41.553Z,20.70
2022-10-17T00:41:09.389Z,20.70
2022-10-17T00:43:53.501Z,20.64
2022-10-17T00:46:46.436Z,20.80
2022-10-17T00:49:13.580Z,20.77
2022-10-17T00:51:41.899Z,20.73
2022-10-17T00:54:09.996Z,20.72
2022-10-17T00:56:37.297Z,20.74
2022-10-17T01:01:38.100Z,20.71
2022-10-17T01:04:05.553Z,20.54
2022-10-17T01:06:32.745Z,20.68
2022-10-17T01:08:59.869Z,20.74
2022-10-17T01:11:36.857Z,20.58
2022-10-17T01:14:06.797Z,20.75
2022-10-17T01:16:40.125Z,20.52
2022-10-17T01:19:33.557Z,20.48
2022-10-17T01:22:11.720Z,20.19
2022-10-17T01:24:48.176Z,20.34
2022-10-17T01:27:34.427Z,20.51
2022-10-17T01:30:05.383Z,20.33
2022-10-17T01:32:39.842Z,20.42
2022-10-17T01:35:07.514Z,20.38
2022-10-17T01:37:40.991Z,20.26
2022-10-17T01:40:10.639Z,20.49
2022-10-17T01:42:51.356Z,20.56
2022-10-17T01:45:38.861Z,20.54
2022-10-17T01:48:07.748Z,20.40
2022-10-17T01:50:36.349Z,20.51
2022-10-17T01:53:05.973Z,20.31
2022-10-17T01:55:34.995Z,20.37
2022-10-17T01:58:04.524Z,20.54
2022-10-17T02:00:32.640Z,20.53
2022-10-17T02:03:00.591Z,20.63
2022-10-17T02:05:35.863Z,20.53
2022-10-17T02:08:03.934Z,20.51
2022-10-17T02:10:31.013Z,20.51
2022-10-17T02:13:00.758Z,20.44
2022-10-17T02:15:34.476Z,20.53
2022-10-17T02:18:10.516Z,20.54
2022-10-17T02:20:41.096Z,20.41
2022-10-17T02:23:09.636Z,20.31
2022-10-17T02:25:41.769Z,20.35
2022-10-17T02:28:22.024Z,20.36
2022-10-17T02:30:50.001Z,20.30
2022-10-17T02:33:18.969Z,20.25
2022-10-17T02:35:47.579Z,20.16
2022-10-17T02:38:15.395Z,20.09
2022-10-17T02:40:42.732Z,20.12
2022-10-17T02:43:10.053Z,20.02
2022-10-17T02:45:37.451Z,19.89
2022-10-17T02:48:06.050Z,19.79
2022-10-17T02:50:52.024Z,19.93
2022-10-17T02:53:25.051Z,19.81
2022-10-17T02:55:54.105Z,19.92
2022-10-17T02:58:23.072Z,19.82
2022-10-17T03:00:50.270Z,19.81
2022-10-17T03:03:25.111Z,19.86
2022-10-17T03:05:52.860Z,19.85
2022-10-17T03:08:21.899Z,19.91
2022-10-17T03:10:49.120Z,19.78
2022-10-17T03:13:16.980Z,19.91
2022-10-17T03:15:45.158Z,19.90
2022-10-17T03:18:12.432Z,19.73
2022-10-17T03:20:39.826Z,19.93
2022-10-17T03:23:06.955Z,19.72
2022-10-17T03:25:34.368Z,19.74
2022-10-17T03:28:02.267Z,19.77
2022-10-17T03:30:29.413Z,19.51
2022-10-17T03:32:59.744Z,19.41
2022-10-17T03:35:27.346Z,19.51
2022-10-17T03:37:55.282Z,19.60
2022-10-17T03:40:22.620Z,19.60
2022-10-17T03:42:50.023Z,19.62
2022-10-17T03:45:17.171Z,19.60
2022-10-17T03:47:44.511Z,19.59
2022-10-17T03:50:12.449Z,19.64
2022-10-17T03:52:39.806Z,19.52
2022-10-17T03:55:07.152Z,19.51
2022-10-17T03:57:35.634Z,19.54
2022-10-17T04:00:04.270Z,19.64
2022-10-17T04:02:41.228Z,19.62
2022-10-17T04:05:09.313Z,19.66
2022-10-17T04:07:37.666Z,19.59
2022-10-17T04:10:05.318Z,19.59
2022-10-17T04:12:32.976Z,19.64
2022-10-17T04:15:00.199Z,19.49
2022-10-17T04:17:27.601Z,19.49
2022-10-17T04:19:55.127Z,19.57
2022-10-17T04:22:23.055Z,19.52
2022-10-17T04:24:50.176Z,19.59
2022-10-17T04:27:18.243Z,19.47
2022-10-17T04:29:45.486Z,19.58
2022-10-17T04:32:13.145Z,19.57
2022-10-17T04:34:40.740Z,19.46
2022-10-17T04:37:07.898Z,19.10
2022-10-17T04:39:35.528Z,19.31
2022-10-17T04:42:03.539Z,19.07
2022-10-17T04:44:31.451Z,19.07
2022-10-17T04:46:58.719Z,19.32
2022-10-17T04:49:26.605Z,19.50
2022-10-17T04:51:54.144Z,19.58
2022-10-17T04:54:21.603Z,19.34
2022-10-17T04:56:49.289Z,19.32
2022-10-17T04:59:16.402Z,19.44
2022-10-17T05:01:43.865Z,19.40
2022-10-17T05:04:11.817Z,19.27
2022-10-17T05:06:39.189Z,19.23
2022-10-17T05:09:07.208Z,18.93
2022-10-17T05:11:34.933Z,19.22
2022-10-17T05:14:02.320Z,19.50
2022-10-17T05:16:29.877Z,19.17
2022-10-17T05:18:57.783Z,18.83
2022-10-17T05:21:27.844Z,18.87
2022-10-17T05:23:55.287Z,19.01
2022-10-17T05:26:22.986Z,19.18
2022-10-17T05:28:52.518Z,19.15
2022-10-17T05:31:20.524Z,19.20
2022-10-17T05:33:48.018Z,19.22
2022-10-17T05:36:15.249Z,19.36
2022-10-17T05:38:42.417Z,19.06
2022-10-17T05:41:10.514Z,19.14
2022-10-17T05:43:37.947Z,19.02
2022-10-17T05:46:06.030Z,19.01
2022-10-17T05:48:33.776Z,18.76
2022-10-17T05:51:09.539Z,18.66
2022-10-17T05:53:38.486Z,18.41
2022-10-17T05:56:07.955Z,18.72
2022-10-17T05:58:53.355Z,18.75
2022-10-17T06:01:24.382Z,18.83
2022-10-17T06:03:51.910Z,18.90
2022-10-17T06:06:19.202Z,18.71
2022-10-17T06:08:46.672Z,18.99
2022-10-17T06:11:14.537Z,18.68
2022-10-17T06:13:41.879Z,19.13
2022-10-17T06:16:09.806Z,18.78
2022-10-17T06:18:37.284Z,19.18
2022-10-17T06:21:05.202Z,19.04
2022-10-17T06:23:32.799Z,18.88
2022-10-17T06:26:00.840Z,18.91
2022-10-17T06:28:29.312Z,18.98
2022-10-17T06:30:57.135Z,19.10
2022-10-17T06:33:24.952Z,19.11
2022-10-17T06:35:56.466Z,19.24
2022-10-17T06:38:24.154Z,19.06
2022-10-17T06:40:53.963Z,19.53
2022-10-17T06:43:25.574Z,18.98
2022-10-17T06:48:29.461Z,19.26
2022-10-17T06:50:58.965Z,19.51
2022-10-17T06:53:28.523Z,19.44
2022-10-17T06:56:02.910Z,19.59
2022-10-17T06:58:32.264Z,19.34
2022-10-17T07:01:01.438Z,19.50
2022-10-17T07:03:28.945Z,19.61
2022-10-17T07:05:56.886Z,19.65
2022-10-17T07:08:24.550Z,19.78
2022-10-17T07:10:51.741Z,19.49
2022-10-17T07:13:19.284Z,19.89
2022-10-17T07:15:46.728Z,19.38
2022-10-17T07:18:14.536Z,19.49
2022-10-17T07:20:41.668Z,19.89
2022-10-17T07:23:09.494Z,18.69
2022-10-17T07:25:40.022Z,19.02
2022-10-17T07:28:07.797Z,18.47
2022-10-17T07:30:35.451Z,18.45
2022-10-17T07:33:03.538Z,18.66
2022-10-17T07:35:31.336Z,19.47
2022-10-17T07:37:58.817Z,19.03
2022-10-17T07:40:27.076Z,19.87
2022-10-17T07:42:55.909Z,19.32
2022-10-17T07:45:27.180Z,19.55
2022-10-17T07:47:57.690Z,19.61
2022-10-17T07:50:25.482Z,20.00
2022-10-17T07:52:52.592Z,20.21
2022-10-17T07:55:19.752Z,19.15
2022-10-17T07:57:47.220Z,19.26
2022-10-17T08:00:14.424Z,19.65
2022-10-17T08:02:41.883Z,20.47
2022-10-17T08:05:09.119Z,20.30
2022-10-17T08:07:36.247Z,20.59
2022-10-17T08:10:03.899Z,21.07
2022-10-17T08:12:34.223Z,20.18
2022-10-17T08:15:01.590Z,19.86
2022-10-17T08:17:29.264Z,20.84
2022-10-17T08:19:56.403Z,21.25
2022-10-17T08:22:23.591Z,20.94
2022-10-17T08:24:51.014Z,20.54
2022-10-17T08:27:23.788Z,20.86
2022-10-17T08:29:54.267Z,21.01
2022-10-17T08:32:21.937Z,21.28
2022-10-17T08:34:49.093Z,19.89
2022-10-17T08:37:16.556Z,21.27
2022-10-17T08:39:43.792Z,20.75
2022-10-17T08:42:27.178Z,21.08
2022-10-17T08:45:14.713Z,21.35
2022-10-17T08:47:45.711Z,21.38
2022-10-17T08:50:15.941Z,21.17
2022-10-17T08:52:45.192Z,21.85
2022-10-17T08:55:14.979Z,22.27
2022-10-17T08:57:42.403Z,21.06
2022-10-17T09:00:19.338Z,21.45
2022-10-17T09:02:46.730Z,21.09
2022-10-17T09:05:32.443Z,21.73
2022-10-17T09:08:02.382Z,22.19
2022-10-17T09:10:48.250Z,21.76
2022-10-17T09:13:31.089Z,22.08
2022-10-17T09:16:03.146Z,22.18
2022-10-17T09:18:31.879Z,22.44
2022-10-17T09:21:00.750Z,22.35
2022-10-17T09:23:29.024Z,21.60
2022-10-17T09:25:58.259Z,20.91
2022-10-17T09:28:27.416Z,21.19
2022-10-17T09:31:00.831Z,21.77
2022-10-17T09:33:53.827Z,21.38
2022-10-17T09:36:29.120Z,21.82
2022-10-17T09:39:06.608Z,21.56
2022-10-17T09:44:28.385Z,22.62
2022-10-17T09:46:55.451Z,21.05
2022-10-17T09:49:26.142Z,21.83
2022-10-17T09:51:53.558Z,22.36
2022-10-17T09:54:22.449Z,21.79
2022-10-17T09:56:58.731Z,21.05
2022-10-17T09:59:55.615Z,21.35
2022-10-17T10:02:23.322Z,22.00
2022-10-17T10:05:08.829Z,21.96
2022-10-17T10:07:37.180Z,21.42
2022-10-17T10:10:05.718Z,22.89
2022-10-17T10:12:34.852Z,22.70
2022-10-17T10:15:02.019Z,21.94
2022-10-17T10:17:36.949Z,22.42
2022-10-17T10:20:24.288Z,23.09
2022-10-17T10:23:09.706Z,23.12
2022-10-17T10:25:36.910Z,23.22
2022-10-17T10:28:09.658Z,22.90
2022-10-17T10:30:39.814Z,22.16
2022-10-17T10:33:10.523Z,22.18
2022-10-17T10:35:37.647Z,22.39
2022-10-17T10:38:08.754Z,21.14
2022-10-17T10:40:44.868Z,21.93
2022-10-17T10:43:20.499Z,21.56
2022-10-17T10:45:48.922Z,23.14
2022-10-17T10:48:21.707Z,22.64
2022-10-17T10:50:55.287Z,22.59
2022-10-17T10:53:26.042Z,23.66
2022-10-17T10:55:55.129Z,23.02
2022-10-17T10:58:31.557Z,23.08
2022-10-17T11:01:00.852Z,23.61
2022-10-17T11:03:50.115Z,23.26
2022-10-17T11:06:20.618Z,23.08
2022-10-17T11:09:05.877Z,24.00
2022-10-17T11:11:38.765Z,24.17
2022-10-17T11:14:13.767Z,23.91
2022-10-17T11:16:46.350Z,23.92
2022-10-17T11:19:16.044Z,24.34
2022-10-17T11:22:02.186Z,23.17
2022-10-17T11:24:40.900Z,23.38
2022-10-17T11:27:08.334Z,23.38
2022-10-17T11:29:36.288Z,23.18
2022-10-17T11:32:06.067Z,23.93
2022-10-17T11:34:35.566Z,23.77
2022-10-17T11:37:04.758Z,23.58
2022-10-17T11:39:31.873Z,23.61
2022-10-17T11:42:04.316Z,23.65
2022-10-17T11:44:36.205Z,24.30
2022-10-17T11:47:22.665Z,24.86
2022-10-17T11:53:10.488Z,24.21
2022-10-17T11:55:38.457Z,24.50
2022-10-17T11:58:24.941Z,24.82
2022-10-17T12:01:01.616Z,24.81
2022-10-17T12:03:32.143Z,25.09
2022-10-17T12:06:17.319Z,25.23
2022-10-17T12:08:47.233Z,24.36
2022-10-17T12:11:21.816Z,23.68
2022-10-17T12:13:51.641Z,24.46
2022-10-17T12:16:18.771Z,24.24
2022-10-17T12:18:46.724Z,24.02
2022-10-17T12:21:14.183Z,23.67
2022-10-17T12:23:41.374Z,25.08
2022-10-17T12:26:09.420Z,24.36
2022-10-17T12:28:39.917Z,25.00
2022-10-17T12:31:16.188Z,24.88
2022-10-17T12:33:46.645Z,25.18
2022-10-17T12:36:17.075Z,25.18
2022-10-17T12:39:13.660Z,24.14
2022-10-17T12:41:40.859Z,24.62
2022-10-17T12:44:14.561Z,24.33
2022-10-17T12:46:57.542Z,24.54
2022-10-17T12:49:41.851Z,25.06
2022-10-17T12:52:15.163Z,24.51
2022-10-17T12:54:47.961Z,24.74
2022-10-17T12:57:32.693Z,24.46
2022-10-17T13:00:05.334Z,24.93
2022-10-17T13:02:32.477Z,25.13
2022-10-17T13:05:11.725Z,24.82
2022-10-17T13:07:38.868Z,25.43
2022-10-17T13:10:06.485Z,24.72
2022-10-17T13:12:37.671Z,25.10
2022-10-17T13:15:08.228Z,25.01
2022-10-17T13:17:35.383Z,25.43
2022-10-17T13:20:03.059Z,25.80
2022-10-17T13:22:31.866Z,25.68
2022-10-17T13:25:07.474Z,25.88
2022-10-17T13:27:35.568Z,25.12
2022-10-17T13:30:17.276Z,25.55
2022-10-17T13:32:45.534Z,25.52
2022-10-17T13:35:22.055Z,25.71
2022-10-17T13:37:54.100Z,24.69
2022-10-17T13:40:40.924Z,24.62
2022-10-17T13:43:17.187Z,24.66
2022-10-17T13:45:51.920Z,25.39
2022-10-17T13:48:23.789Z,25.45
2022-10-17T13:50:52.057Z,25.70
2022-10-17T13:53:26.769Z,25.43
2022-10-17T13:56:15.706Z,25.64
2022-10-17T13:58:45.688Z,25.69
2022-10-17T14:01:13.180Z,25.07
2022-10-17T14:03:48.358Z,25.63
2022-10-17T14:06:17.471Z,25.48
2022-10-17T14:09:11.267Z,24.50
2022-10-17T14:11:41.976Z,25.17
2022-10-17T14:14:51.984Z,25.14
2022-10-17T14:17:24.178Z,25.43
2022-10-17T14:20:05.874Z,25.42
2022-10-17T14:22:39.371Z,25.77
2022-10-17T14:25:26.353Z,25.96
2022-10-17T14:27:55.786Z,25.91
2022-10-17T14:30:51.715Z,25.02
2022-10-17T14:33:34.605Z,25.30
2022-10-17T14:36:05.282Z,25.54
2022-10-17T14:38:32.430Z,25.22
2022-10-17T14:41:20.945Z,25.56
2022-10-17T14:43:52.430Z,25.41
2022-10-17T14:46:19.574Z,25.23
2022-10-17T14:48:47.773Z,25.50
2022-10-17T14:51:15.928Z,25.31
2022-10-17T14:53:44.427Z,25.20
2022-10-17T14:56:24.622Z,24.98
2022-10-17T14:58:52.276Z,24.98
2022-10-17T15:01:19.523Z,25.09
2022-10-17T15:03:46.879Z,25.23
2022-10-17T15:06:19.186Z,25.11
2022-10-17T15:08:46.327Z,25.14
2022-10-17T15:11:13.499Z,25.09
2022-10-17T15:13:45.430Z,24.94
2022-10-17T15:16:14.162Z,24.80
2022-10-17T15:18:41.664Z,24.62
2022-10-17T15:21:33.799Z,24.70
2022-10-17T15:24:01.773Z,24.54
2022-10-17T15:26:30.369Z,24.73
2022-10-17T15:28:57.594Z,24.69
2022-10-17T15:31:25.998Z,24.64
2022-10-17T15:33:53.295Z,24.66
2022-10-17T15:36:23.499Z,24.50
2022-10-17T15:38:52.524Z,24.60
2022-10-17T15:41:19.826Z,24.54
2022-10-17T15:43:47.741Z,24.41
2022-10-17T15:46:17.359Z,24.54
2022-10-17T15:48:44.787Z,24.48
2022-10-17T15:51:12.032Z,24.36
2022-10-17T15:53:39.810Z,24.43
2022-10-17T15:56:09.439Z,24.15
2022-10-17T15:58:40.414Z,24.31
2022-10-17T16:01:08.114Z,24.17
2022-10-17T16:03:35.791Z,24.18
2022-10-17T16:06:02.967Z,24.35
2022-10-17T16:08:30.148Z,24.46
2022-10-17T16:10:57.635Z,24.67
2022-10-17T16:13:24.829Z,24.74
2022-10-17T16:15:52.939Z,24.80
2022-10-17T16:18:21.214Z,24.69
2022-10-17T16:20:48.433Z,24.76
2022-10-17T16:23:16.818Z,24.70
2022-10-17T16:25:44.218Z,24.57
2022-10-17T16:28:12.053Z,24.60
2022-10-17T16:30:42.469Z,24.63
2022-10-17T16:33:10.446Z,24.55
2022-10-17T16:35:37.837Z,24.43
2022-10-17T16:38:05.807Z,24.34
2022-10-17T16:40:33.378Z,24.27
2022-10-17T16:43:00.514Z,24.37
2022-10-17T16:45:27.664Z,24.34
2022-10-17T16:47:55.098Z,24.41
2022-10-17T16:50:22.323Z,24.10
2022-10-17T16:52:49.457Z,23.98
2022-10-17T16:55:18.968Z,23.85
2022-10-17T16:57:46.234Z,23.91
2022-10-17T17:00:15.034Z,24.06
2022-10-17T17:02:42.728Z,23.92
2022-10-17T17:05:09.989Z,23.79
2022-10-17T17:07:37.488Z,23.60
2022-10-17T17:10:05.203Z,23.70
2022-10-17T17:12:35.689Z,23.78
2022-10-17T17:15:04.099Z,23.83
2022-10-17T17:17:48.724Z,23.73
2022-10-17T17:20:19.003Z,23.62
2022-10-17T17:22:46.624Z,23.65
2022-10-17T17:25:14.307Z,23.69
2022-10-17T17:27:41.880Z,23.70
2022-10-17T17:30:09.824Z,23.55
2022-10-17T17:32:37.041Z,23.50
2022-10-17T17:35:04.480Z,23.61
2022-10-17T17:37:32.618Z,23.48
2022-10-17T17:40:00.185Z,23.40
2022-10-17T17:42:27.526Z,23.35
2022-10-17T17:44:55.415Z,23.13
2022-10-17T17:47:23.078Z,23.16
2022-10-17T17:49:50.438Z,23.01
2022-10-17T17:52:17.971Z,22.54
2022-10-17T17:54:45.219Z,22.97
2022-10-17T17:57:13.219Z,22.85
2022-10-17T17:59:41.589Z,23.11
2022-10-17T18:02:10.052Z,23.15
2022-10-17T18:04:37.629Z,23.01
2022-10-17T18:07:04.865Z,22.98
2022-10-17T18:09:32.260Z,22.85
2022-10-17T18:12:00.188Z,22.85
2022-10-17T18:14:27.930Z,23.03
2022-10-17T18:16:56.239Z,22.76
2022-10-17T18:19:24.188Z,22.74
2022-10-17T18:21:51.406Z,23.03
2022-10-17T18:24:18.939Z,22.94
2022-10-17T18:26:46.813Z,22.87
2022-10-17T18:29:15.465Z,22.85
2022-10-17T18:31:43.485Z,22.71
2022-10-17T18:34:11.355Z,22.69
2022-10-17T18:36:39.036Z,22.71
2022-10-17T18:39:06.267Z,22.50
2022-10-17T18:41:34.280Z,22.54
2022-10-17T18:44:03.627Z,22.65
2022-10-17T18:46:35.885Z,22.44
2022-10-17T18:49:03.808Z,22.13
2022-10-17T18:51:31.425Z,22.11
2022-10-17T18:53:59.077Z,22.19
2022-10-17T18:56:26.925Z,22.12
2022-10-17T18:58:54.643Z,22.17
2022-10-17T19:01:23.419Z,22.50
2022-10-17T19:03:51.658Z,22.08
2022-10-17T19:06:19.678Z,21.92
2022-10-17T19:08:49.062Z,21.97
2022-10-17T19:11:26.077Z,22.11
2022-10-17T19:13:53.336Z,22.13
2022-10-17T19:16:22.103Z,22.14
2022-10-17T19:18:53.093Z,22.13
2022-10-17T19:21:22.070Z,22.06
2022-10-17T19:23:51.039Z,22.20
2022-10-17T19:26:18.657Z,22.15
2022-10-17T19:28:46.587Z,22.20
2022-10-17T19:31:16.985Z,22.02
2022-10-17T19:33:45.985Z,22.21
2022-10-17T19:36:13.838Z,22.04
2022-10-17T19:38:41.083Z,21.99
2022-10-17T19:41:09.134Z,22.02
2022-10-17T19:43:37.260Z,22.09
2022-10-17T19:46:05.404Z,22.25
2022-10-17T19:48:33.909Z,22.22
2022-10-17T19:51:01.111Z,22.13
2022-10-17T19:53:29.519Z,22.23
2022-10-17T19:55:58.549Z,22.06
2022-10-17T19:58:26.373Z,22.23
2022-10-17T20:00:57.293Z,22.42
2022-10-17T20:03:25.208Z,22.28
2022-10-17T20:05:52.593Z,22.51
2022-10-17T20:08:19.890Z,22.29
2022-10-17T20:10:47.341Z,22.37
2022-10-17T20:13:14.592Z,22.25
2022-10-17T20:15:41.696Z,22.08
2022-10-17T20:18:09.286Z,22.06
2022-10-17T20:20:36.687Z,22.08
2022-10-17T20:23:04.395Z,22.07
2022-10-17T20:25:34.618Z,22.13
2022-10-17T20:28:01.923Z,22.08
2022-10-17T20:30:29.657Z,22.05
2022-10-17T20:33:21.409Z,21.99
2022-10-17T20:35:57.670Z,22.13
2022-10-17T20:38:25.096Z,22.17
2022-10-17T20:40:52.187Z,22.23
2022-10-17T20:43:19.309Z,22.20
2022-10-17T20:45:51.180Z,22.34
2022-10-17T20:48:19.122Z,22.11
2022-10-17T20:50:46.544Z,22.15
2022-10-17T20:56:04.885Z,22.11
2022-10-17T20:58:32.017Z,22.17
2022-10-17T21:00:59.337Z,21.98
2022-10-17T21:03:26.750Z,22.16
2022-10-17T21:05:53.855Z,22.16
2022-10-17T21:08:20.971Z,22.17
2022-10-17T21:10:48.363Z,22.07
2022-10-17T21:13:15.486Z,22.10
2022-10-17T21:15:42.600Z,22.06
2022-10-17T21:18:09.977Z,22.10
2022-10-17T21:20:37.718Z,22.10
2022-10-17T21:23:04.852Z,22.07
2022-10-17T21:25:32.241Z,22.08
2022-10-17T21:27:59.535Z,22.14
2022-10-17T21:30:26.649Z,21.95
2022-10-17T21:32:55.238Z,22.00
2022-10-17T21:35:22.865Z,21.91
2022-10-17T21:37:50.003Z,21.73
2022-10-17T21:40:17.420Z,21.86
2022-10-17T21:42:44.537Z,21.86
2022-10-17T21:45:15.596Z,21.82
2022-10-17T21:48:11.286Z,21.73
2022-10-17T21:50:34.707Z,21.74
2022-10-17T21:53:02.129Z,21.57
2022-10-17T21:55:29.242Z,21.68
2022-10-17T21:57:56.378Z,21.62
2022-10-17T22:00:23.802Z,21.68
2022-10-17T22:02:51.183Z,21.67
2022-10-17T22:05:18.325Z,21.68
2022-10-17T22:07:45.442Z,21.67
2022-10-17T22:10:12.830Z,21.64
2022-10-17T22:12:39.967Z,21.57
2022-10-17T22:15:07.390Z,21.52
2022-10-17T22:17:34.845Z,21.51
2022-10-17T22:20:01.960Z,21.52
2022-10-17T22:22:30.058Z,21.53
2022-10-17T22:24:57.424Z,21.45
2022-10-17T22:27:24.612Z,21.43
2022-10-17T22:29:51.719Z,21.51
2022-10-17T22:32:21.718Z,21.37
2022-10-17T22:34:49.815Z,21.29
2022-10-17T22:37:16.943Z,21.34
2022-10-17T22:39:44.342Z,21.32
2022-10-17T22:42:11.506Z,21.26
2022-10-17T22:44:38.647Z,21.34
2022-10-17T22:47:06.052Z,21.33
2022-10-17T22:49:33.610Z,21.31
2022-10-17T22:52:00.821Z,21.14
2022-10-17T22:54:28.201Z,21.23
2022-10-17T22:56:55.381Z,21.21
2022-10-17T22:59:22.507Z,20.96
2022-10-17T23:01:49.957Z,21.05
2022-10-17T23:04:17.091Z,20.99
2022-10-17T23:06:44.229Z,20.93
2022-10-17T23:09:12.397Z,20.99
2022-10-17T23:11:39.518Z,20.89
2022-10-17T23:14:06.666Z,20.96
2022-10-17T23:16:34.043Z,20.95
2022-10-17T23:19:01.203Z,20.93
2022-10-17T23:21:28.325Z,20.83
2022-10-17T23:23:55.712Z,20.78
2022-10-17T23:26:22.829Z,20.81
2022-10-17T23:28:53.288Z,20.82
2022-10-17T23:31:21.047Z,20.77
2022-10-17T23:33:48.800Z,20.78
2022-10-17T23:36:16.814Z,20.78
2022-10-17T23:38:44.597Z,20.77
2022-10-17T23:41:11.736Z,20.85
2022-10-17T23:43:38.883Z,20.76
2022-10-17T23:46:06.547Z,20.81
2022-10-17T23:48:33.730Z,20.81
2022-10-17T23:51:01.023Z,20.80
2022-10-17T23:53:28.414Z,20.83
2022-10-17T23:55:55.520Z,20.81
2022-10-17T23:58:22.663Z,20.90
